Time;durP1;ratioP1;P1;durP2;ratioP2;P2;SDS_P1;SDS_P2;PMS_P1;PMS_P2;Temp;Humidity;BMP_temperature;BMP_pressure;BME280_temperature;BME280_humidity;BME280_pressure;Samples;Min_cycle;Max_cycle;Signal;HPM_P1;HPM_P2
2023/05/09 00:00:13;;;;;;;18.52;16.55;;;;;;;10.30;49.76;101306.19;4898825;28;101190;-79
2023/05/09 00:02:44;;;;;;;17.50;15.90;;;;;;;10.49;49.32;101311.09;4895381;28;97020;-77
2023/05/09 00:05:10;;;;;;;19.17;17.13;;;;;;;10.42;49.46;101308.59;4911627;28;97002;-79
2023/05/09 00:07:36;;;;;;;16.98;15.40;;;;;;;10.40;49.61;101314.75;4927475;28;101612;-79
2023/05/09 00:10:03;;;;;;;18.50;16.70;;;;;;;10.29;49.72;101304.44;4913684;28;100720;-79
2023/05/09 00:12:29;;;;;;;18.20;16.40;;;;;;;10.32;49.86;101295.66;4922189;28;96798;-79
2023/05/09 00:14:55;;;;;;;19.02;16.42;;;;;;;10.23;50.14;101307.13;4909412;28;97361;-79
2023/05/09 00:17:25;;;;;;;17.67;16.08;;;;;;;10.12;50.50;101298.56;4921532;28;101200;-79
2023/05/09 00:19:51;;;;;;;18.65;16.50;;;;;;;10.29;50.10;101301.81;4922132;28;100912;-80
2023/05/09 00:22:20;;;;;;;18.45;15.90;;;;;;;10.29;49.75;101300.94;4919412;28;97210;-79
2023/05/09 00:24:46;;;;;;;18.67;16.80;;;;;;;10.28;50.05;101305.34;4916185;28;97183;-80
2023/05/09 00:27:12;;;;;;;17.40;15.90;;;;;;;10.26;50.73;101300.97;4923059;28;101870;-79
2023/05/09 00:29:37;;;;;;;16.25;14.52;;;;;;;10.16;50.46;101293.25;4916172;28;100786;-79
2023/05/09 00:32:03;;;;;;;17.55;15.95;;;;;;;10.25;50.11;101292.25;4915486;28;96845;-79
2023/05/09 00:34:28;;;;;;;18.50;16.55;;;;;;;9.96;50.83;101288.34;4911329;28;96888;-79
2023/05/09 00:36:54;;;;;;;18.30;16.50;;;;;;;10.06;50.29;101272.44;4913328;28;101880;-79
2023/05/09 00:39:20;;;;;;;18.40;16.65;;;;;;;10.06;50.34;101261.94;4904799;28;101356;-79
2023/05/09 00:41:45;;;;;;;16.27;14.77;;;;;;;10.22;50.17;101286.19;4916472;28;97120;-79
2023/05/09 00:44:11;;;;;;;18.08;16.20;;;;;;;10.16;50.26;101280.13;4903525;28;97053;-79
2023/05/09 00:46:37;;;;;;;17.70;15.90;;;;;;;10.08;50.85;101291.66;4918861;28;97876;-78
2023/05/09 00:49:03;;;;;;;17.83;16.13;;;;;;;10.05;50.28;101266.34;4915669;28;101204;-79
2023/05/09 00:51:29;;;;;;;16.73;15.23;;;;;;;9.89;50.88;101272.72;4919193;28;97270;-79
2023/05/09 00:53:55;;;;;;;17.25;15.68;;;;;;;9.98;50.74;101276.06;4918189;28;97218;-79
2023/05/09 00:56:21;;;;;;;17.38;15.02;;;;;;;10.02;50.35;101276.88;4916595;28;101407;-79
2023/05/09 00:58:46;;;;;;;17.23;15.75;;;;;;;9.93;51.30;101279.66;4900580;28;101270;-78
2023/05/09 01:01:12;;;;;;;16.73;15.00;;;;;;;9.87;51.04;101282.38;4911335;28;97018;-79
2023/05/09 01:03:38;;;;;;;16.92;15.38;;;;;;;9.97;50.90;101276.94;4947222;28;97050;-79
2023/05/09 01:06:18;;;;;;;16.30;14.93;;;;;;;9.88;50.43;101269.22;4948512;28;98116;-79
2023/05/09 01:08:52;;;;;;;16.92;15.32;;;;;;;9.79;51.20;101279.00;4946464;28;98448;-77
2023/05/09 01:12:04;;;;;;;16.80;15.25;;;;;;;9.75;51.14;101254.59;4943871;28;97006;-79
2023/05/09 01:15:03;;;;;;;18.50;15.68;;;;;;;9.60;51.98;101273.16;4878552;28;97135;-79
2023/05/09 01:17:51;;;;;;;16.55;15.00;;;;;;;9.69;51.66;101265.19;4886406;28;101274;-80
2023/05/09 01:20:32;;;;;;;16.38;14.95;;;;;;;9.53;52.12;101262.78;4896196;28;101230;-79
2023/05/09 01:23:19;;;;;;;16.30;14.70;;;;;;;9.67;51.90;101256.47;4906233;28;96999;-79
2023/05/09 01:26:02;;;;;;;16.52;14.93;;;;;;;9.53;51.50;101222.59;4932114;28;97383;-78
2023/05/09 01:28:42;;;;;;;17.58;16.05;;;;;;;9.67;51.78;101252.09;4902429;28;101709;-80
2023/05/09 01:31:08;;;;;;;16.95;15.40;;;;;;;9.69;51.36;101254.69;4936534;28;101640;-80
2023/05/09 01:33:38;;;;;;;16.40;14.93;;;;;;;9.56;52.23;101256.63;4946796;28;96770;-79
2023/05/09 01:36:09;;;;;;;17.10;15.38;;;;;;;9.52;52.31;101247.94;4942167;28;97288;-79
2023/05/09 01:38:36;;;;;;;17.50;15.87;;;;;;;9.58;51.55;101251.38;4917805;28;100724;-79
2023/05/09 01:41:04;;;;;;;17.13;15.50;;;;;;;9.57;51.57;101242.66;4899173;28;101810;-79
2023/05/09 01:43:30;;;;;;;16.70;15.05;;;;;;;9.24;52.29;101221.28;4917279;28;97294;-79
2023/05/09 01:45:56;;;;;;;18.05;15.60;;;;;;;9.58;52.02;101261.84;4910343;28;97472;-79
2023/05/09 01:48:25;;;;;;;18.20;16.35;;;;;;;9.51;51.60;101251.47;4921797;28;97966;-80
2023/05/09 01:50:51;;;;;;;16.42;14.90;;;;;;;9.57;51.46;101249.63;4917105;28;97852;-79
2023/05/09 01:53:18;;;;;;;17.23;15.48;;;;;;;9.57;51.74;101244.38;4909425;28;97299;-77
2023/05/09 01:55:45;;;;;;;16.27;14.63;;;;;;;9.49;51.51;101248.00;4902453;28;96964;-78
2023/05/09 01:58:11;;;;;;;16.63;15.10;;;;;;;9.42;51.91;101251.56;4943823;28;98904;-79
2023/05/09 02:00:37;;;;;;;16.30;14.80;;;;;;;9.39;51.84;101221.94;4913896;28;102793;-79
2023/05/09 02:03:03;;;;;;;19.10;15.20;;;;;;;9.55;51.71;101254.03;4916497;28;97020;-79
2023/05/09 02:05:29;;;;;;;16.58;14.95;;;;;;;9.46;52.06;101245.41;4917680;28;97114;-79
2023/05/09 02:07:57;;;;;;;16.42;14.90;;;;;;;9.39;52.57;101250.75;4913178;28;101344;-79
2023/05/09 02:10:26;;;;;;;17.98;16.08;;;;;;;9.37;52.54;101250.78;4928447;28;97443;-79
2023/05/09 02:12:53;;;;;;;15.95;14.55;;;;;;;9.44;52.69;101243.72;4926106;28;97296;-80
2023/05/09 02:15:18;;;;;;;17.75;16.13;;;;;;;9.12;52.72;101221.44;4915628;28;96893;-78
2023/05/09 02:17:44;;;;;;;16.43;14.93;;;;;;;9.35;52.77;101249.09;4929443;28;101106;-79
2023/05/09 02:20:10;;;;;;;16.70;15.15;;;;;;;9.33;52.89;101249.09;4897224;28;101532;-80
2023/05/09 02:22:36;;;;;;;18.27;16.27;;;;;;;9.31;52.51;101245.66;4940947;28;97013;-80
2023/05/09 02:25:06;;;;;;;18.67;14.77;;;;;;;9.23;51.99;101218.69;4910530;28;98214;-81
2023/05/09 02:27:33;;;;;;;16.75;15.25;;;;;;;9.22;52.96;101235.28;4918611;28;101943;-80
2023/05/09 02:30:02;;;;;;;18.27;16.65;;;;;;;9.23;53.03;101242.25;4928573;28;101436;-80
2023/05/09 02:32:30;;;;;;;17.10;15.38;;;;;;;9.16;52.88;101236.25;4943507;28;96835;-79
2023/05/09 02:34:57;;;;;;;18.13;16.23;;;;;;;9.01;52.59;101195.38;4932331;28;97237;-80
2023/05/09 02:37:23;;;;;;;16.75;15.23;;;;;;;9.13;52.90;101222.31;4925116;28;98153;-80
2023/05/09 02:39:49;;;;;;;16.80;15.20;;;;;;;9.05;52.42;101198.84;4937515;28;101477;-79
2023/05/09 02:42:19;;;;;;;17.08;15.32;;;;;;;9.24;52.84;101237.00;4926918;28;96797;-80
2023/05/09 02:44:45;;;;;;;15.60;14.17;;;;;;;9.07;53.56;101223.25;4927794;28;97096;-78
2023/05/09 02:47:11;;;;;;;17.40;15.70;;;;;;;8.93;53.74;101218.22;4919963;28;101362;-80
2023/05/09 02:49:36;;;;;;;18.90;17.17;;;;;;;9.12;52.91;101231.91;4931463;28;98443;-80
2023/05/09 02:52:03;;;;;;;19.23;15.73;;;;;;;9.04;53.16;101226.78;4924974;28;97456;-79
2023/05/09 02:54:29;;;;;;;18.52;16.83;;;;;;;8.95;53.49;101233.91;4923669;28;97035;-80
2023/05/09 02:56:54;;;;;;;19.08;16.65;;;;;;;8.80;54.23;101229.72;4904973;28;100798;-79
2023/05/09 02:59:20;;;;;;;17.13;15.52;;;;;;;8.87;54.11;101217.41;4926972;28;101102;-80
2023/05/09 03:01:46;;;;;;;21.97;16.67;;;;;;;8.61;54.06;101168.91;4901434;28;96783;-78
2023/05/09 03:04:12;;;;;;;17.38;15.77;;;;;;;8.78;54.11;101213.16;4887299;28;97152;-79
2023/05/09 03:06:37;;;;;;;17.83;16.05;;;;;;;8.74;54.30;101195.78;4931991;28;101438;-79
2023/05/09 03:09:03;;;;;;;22.77;16.87;;;;;;;8.60;54.86;101212.50;4921497;28;97804;-79
2023/05/09 03:11:29;;;;;;;20.33;15.67;;;;;;;8.59;54.15;101188.97;4928736;28;96817;-79
2023/05/09 03:13:55;;;;;;;18.83;15.93;;;;;;;8.77;54.28;101220.16;4931831;28;98344;-79
2023/05/09 03:16:21;;;;;;;18.70;16.92;;;;;;;8.77;54.67;101219.28;4911123;28;101703;-79
2023/05/09 03:18:48;;;;;;;19.00;17.00;;;;;;;8.66;54.83;101222.03;4912253;28;100956;-78
2023/05/09 03:21:14;;;;;;;19.20;17.20;;;;;;;8.80;53.92;101219.25;4890079;28;97946;-80
2023/05/09 03:23:39;;;;;;;18.80;16.98;;;;;;;8.63;54.58;101208.13;4929572;28;96868;-79
2023/05/09 03:26:05;;;;;;;18.25;16.45;;;;;;;8.69;54.12;101203.66;4927256;28;101424;-80
2023/05/09 03:28:30;;;;;;;17.73;16.23;;;;;;;8.66;54.02;101208.06;4915542;28;101586;-80
2023/05/09 03:31:00;;;;;;;18.83;16.98;;;;;;;8.61;54.72;101205.53;4915859;28;97473;-80
2023/05/09 03:33:27;;;;;;;19.03;17.07;;;;;;;8.63;54.76;101208.13;4926974;28;97473;-80
2023/05/09 03:35:53;;;;;;;19.08;17.20;;;;;;;8.29;55.43;101203.22;4914715;28;100859;-81
2023/05/09 03:38:19;;;;;;;19.17;17.20;;;;;;;8.57;54.81;101209.91;4936430;28;98004;-80
2023/05/09 03:40:45;;;;;;;17.67;16.17;;;;;;;8.67;54.22;101209.78;4923800;28;97280;-80
2023/05/09 03:43:11;;;;;;;21.77;17.60;;;;;;;8.50;54.54;101204.78;4907425;28;97136;-80
2023/05/09 03:45:37;;;;;;;17.08;15.50;;;;;;;8.48;55.08;101215.25;4945789;28;98111;-80
2023/05/09 03:48:07;;;;;;;17.65;16.15;;;;;;;8.65;54.62;101204.59;4908296;28;101590;-80
2023/05/09 03:50:34;;;;;;;17.60;15.90;;;;;;;8.47;55.16;101210.91;4947903;28;96784;-80
2023/05/09 03:53:00;;;;;;;18.30;16.53;;;;;;;8.54;54.90;101212.56;4914397;28;97086;-80
2023/05/09 03:55:26;;;;;;;18.65;17.00;;;;;;;8.68;54.68;101211.56;4931701;28;101587;-81
2023/05/09 03:57:53;;;;;;;18.83;15.97;;;;;;;8.60;54.82;101202.03;4903813;28;101048;-80
2023/05/09 04:00:19;;;;;;;18.55;16.85;;;;;;;8.66;54.45;101208.06;4925952;28;97492;-80
2023/05/09 04:02:52;;;;;;;19.05;17.10;;;;;;;8.51;55.09;101207.38;4922922;28;96838;-80
2023/05/09 04:05:29;;;;;;;18.27;16.67;;;;;;;8.52;54.80;101209.13;4925844;28;101700;-80
2023/05/09 04:07:55;;;;;;;19.02;17.42;;;;;;;8.61;54.57;101181.97;4912499;28;101010;-80
2023/05/09 04:10:21;;;;;;;19.33;17.63;;;;;;;8.88;54.42;101208.69;4895521;28;97156;-80
2023/05/09 04:12:47;;;;;;;18.73;16.67;;;;;;;8.88;54.22;101211.31;4876192;28;97482;-78
2023/05/09 04:15:15;;;;;;;20.45;18.10;;;;;;;8.76;54.38;101207.97;4892517;28;101734;-80
2023/05/09 04:17:41;;;;;;;20.13;17.93;;;;;;;9.00;54.19;101205.91;4870142;28;101288;-80
2023/05/09 04:20:07;;;;;;;19.35;17.08;;;;;;;9.15;53.04;101187.34;4895179;28;97273;-80
2023/05/09 04:22:33;;;;;;;19.92;17.92;;;;;;;9.23;53.15;101214.31;4887481;28;97063;-79
2023/05/09 04:24:58;;;;;;;20.02;18.15;;;;;;;9.10;53.30;101186.53;4891950;28;101555;-80
2023/05/09 04:27:26;;;;;;;21.75;17.80;;;;;;;9.45;52.81;101199.16;4890498;28;100196;-79
2023/05/09 04:29:52;;;;;;;20.52;18.40;;;;;;;9.84;51.81;101202.00;4891558;28;96733;-81
2023/05/09 04:32:19;;;;;;;19.40;17.50;;;;;;;9.90;52.23;101207.13;4911238;28;97137;-80
2023/05/09 04:34:45;;;;;;;19.40;17.27;;;;;;;10.08;52.08;101207.72;4892086;28;102044;-80
2023/05/09 04:37:17;;;;;;;19.98;18.15;;;;;;;10.08;51.72;101208.56;4896030;28;99563;-79
2023/05/09 04:39:43;;;;;;;19.02;17.02;;;;;;;10.08;51.71;101205.94;4892540;28;97453;-80
2023/05/09 04:42:21;;;;;;;19.90;18.17;;;;;;;10.24;51.57;101210.91;4912469;28;97401;-80
2023/05/09 04:44:48;;;;;;;19.83;18.10;;;;;;;10.42;50.98;101218.47;4893391;28;100506;-79
2023/05/09 04:47:14;;;;;;;19.58;17.58;;;;;;;10.29;51.20;101212.59;4888747;28;101287;-80
2023/05/09 04:49:39;;;;;;;19.50;17.70;;;;;;;10.45;51.12;101199.19;4895227;28;97256;-80
2023/05/09 04:52:05;;;;;;;21.08;18.92;;;;;;;10.86;50.65;101203.59;4918884;28;97244;-80
2023/05/09 04:54:31;;;;;;;21.60;19.60;;;;;;;10.96;50.00;101209.50;4879476;28;101583;-79
2023/05/09 04:56:57;;;;;;;19.90;18.15;;;;;;;10.96;49.82;101180.59;4898699;28;101645;-81
2023/05/09 04:59:24;;;;;;;20.05;18.25;;;;;;;11.30;49.87;101196.47;4896249;28;97626;-80
2023/05/09 05:01:50;;;;;;;23.17;17.70;;;;;;;11.29;49.84;101197.41;4885701;28;97320;-79
2023/05/09 05:04:17;;;;;;;20.42;18.35;;;;;;;11.50;49.29;101183.72;4902560;28;101362;-80
2023/05/09 05:06:42;;;;;;;21.33;18.33;;;;;;;11.55;49.34;101173.97;4904147;28;100777;-80
2023/05/09 05:09:09;;;;;;;19.05;17.17;;;;;;;11.81;48.40;101192.63;4915706;28;97279;-81
2023/05/09 05:11:34;;;;;;;18.85;17.25;;;;;;;11.79;48.44;101188.28;4917285;28;97480;-81
2023/05/09 05:14:01;;;;;;;19.92;17.95;;;;;;;11.88;48.94;101194.25;4913204;28;101117;-79
2023/05/09 05:16:27;;;;;;;22.52;18.25;;;;;;;12.15;48.83;101192.66;4928044;28;101013;-80
2023/05/09 05:18:53;;;;;;;20.67;18.00;;;;;;;12.28;47.67;101165.09;4917575;28;96829;-78
2023/05/09 05:21:19;;;;;;;19.13;17.52;;;;;;;13.13;47.15;101193.31;4915201;28;96969;-81
2023/05/09 05:23:44;;;;;;;18.33;16.55;;;;;;;13.86;46.23;101196.31;4918884;28;101122;-81
2023/05/09 05:26:10;;;;;;;23.45;17.83;;;;;;;14.72;44.32;101183.59;4916235;28;101681;-81
2023/05/09 05:28:35;;;;;;;19.42;17.83;;;;;;;16.04;42.08;101175.66;4918640;28;96764;-81
2023/05/09 05:31:02;;;;;;;18.77;17.10;;;;;;;16.64;39.87;101163.25;4918745;28;97301;-83
2023/05/09 05:33:27;;;;;;;18.00;16.33;;;;;;;18.25;37.83;101183.72;4913627;28;100119;-81
2023/05/09 05:35:53;;;;;;;18.33;16.45;;;;;;;21.16;33.60;101171.19;4898986;28;101249;-76
2023/05/09 05:38:20;;;;;;;18.15;16.48;;;;;;;24.02;28.99;101165.28;4903713;28;96796;-78
2023/05/09 05:40:49;;;;;;;18.60;16.80;;;;;;;25.19;27.31;101165.81;4919109;28;96898;-77
2023/05/09 05:43:15;;;;;;;19.27;17.55;;;;;;;27.70;24.32;101166.34;4903511;28;100943;-79
2023/05/09 05:45:42;;;;;;;18.15;16.42;;;;;;;28.12;23.43;101129.06;4908968;28;101177;-78
2023/05/09 05:48:11;;;;;;;17.52;16.00;;;;;;;31.02;21.28;101148.41;4937892;28;96882;-77
2023/05/09 05:50:36;;;;;;;17.30;15.80;;;;;;;32.53;19.87;101137.19;4931612;28;97214;-78
2023/05/09 05:53:03;;;;;;;17.27;15.85;;;;;;;33.42;19.55;101138.50;4935927;28;101616;-80
2023/05/09 05:55:28;;;;;;;19.88;17.85;;;;;;;32.67;19.39;101141.88;4930767;28;100798;-80
2023/05/09 05:57:54;;;;;;;18.15;16.60;;;;;;;32.97;19.41;101144.75;4933129;28;96896;-79
2023/05/09 06:00:19;;;;;;;17.83;16.30;;;;;;;34.61;18.10;101125.09;4925406;28;97030;-80
2023/05/09 06:03:00;;;;;;;16.83;15.60;;;;;;;35.36;17.41;101126.59;4918988;28;101029;-81
2023/05/09 06:05:49;;;;;;;16.95;15.85;;;;;;;36.09;16.61;101127.22;4914141;28;102014;-81
2023/05/09 06:08:15;;;;;;;17.52;15.80;;;;;;;36.78;16.37;101126.31;4919918;28;97285;-81
2023/05/09 06:10:41;;;;;;;16.55;15.20;;;;;;;35.23;17.09;101129.19;4931705;28;97519;-81
2023/05/09 06:13:06;;;;;;;16.98;15.45;;;;;;;35.95;16.41;101112.59;4889310;28;101530;-80
2023/05/09 06:15:33;;;;;;;16.52;15.25;;;;;;;37.09;15.84;101123.06;4918351;28;101420;-80
2023/05/09 06:17:59;;;;;;;15.65;14.55;;;;;;;38.30;15.15;101121.13;4947060;28;96731;-81
2023/05/09 06:20:24;;;;;;;16.73;15.43;;;;;;;39.49;14.63;101104.03;4921317;28;97256;-81
2023/05/09 06:22:50;;;;;;;16.25;14.82;;;;;;;39.00;14.56;101113.88;4931733;28;98391;-81
2023/05/09 06:25:16;;;;;;;15.85;14.55;;;;;;;37.10;15.14;101116.53;4930509;28;101775;-80
2023/05/09 06:27:41;;;;;;;16.38;15.18;;;;;;;38.10;15.13;101126.66;4946923;28;97185;-80
2023/05/09 06:30:07;;;;;;;16.98;15.70;;;;;;;39.84;13.81;101114.50;4925331;28;97381;-81
2023/05/09 06:32:33;;;;;;;16.40;15.30;;;;;;;40.59;13.12;101114.31;4935456;28;101584;-81
2023/05/09 06:34:58;;;;;;;17.20;15.52;;;;;;;42.54;12.53;101097.88;4933146;28;97448;-80
2023/05/09 06:37:25;;;;;;;15.95;14.88;;;;;;;43.37;12.51;101090.84;4898377;28;97338;-81
2023/05/09 06:39:50;;;;;;;16.73;15.57;;;;;;;43.70;12.25;101094.72;4915871;28;96962;-81
2023/05/09 06:42:16;;;;;;;15.80;14.80;;;;;;;45.03;11.07;101088.03;4942335;28;98023;-81
2023/05/09 06:44:42;;;;;;;16.30;15.02;;;;;;;43.96;11.44;101079.34;4909117;28;101414;-82
2023/05/09 06:47:09;;;;;;;15.57;14.38;;;;;;;45.33;10.85;101087.50;4906466;28;96733;-81
2023/05/09 06:49:34;;;;;;;17.05;15.95;;;;;;;45.30;10.91;101073.34;4922810;28;97490;-82
2023/05/09 06:52:00;;;;;;;15.10;14.10;;;;;;;45.33;10.89;101083.88;4950188;28;97410;-80
2023/05/09 06:54:25;;;;;;;17.13;15.82;;;;;;;43.12;11.53;101080.22;4914790;28;101493;-80
2023/05/09 06:56:51;;;;;;;16.15;15.02;;;;;;;46.49;10.36;101091.19;4925072;28;97122;-80
2023/05/09 06:59:17;;;;;;;15.32;14.32;;;;;;;44.53;10.75;101083.63;4946521;28;97923;-80
2023/05/09 07:01:42;;;;;;;16.30;15.10;;;;;;;43.98;11.11;101077.16;4943981;28;101286;-80
2023/05/09 07:04:08;;;;;;;18.75;17.23;;;;;;;46.50;10.56;101069.81;4925693;28;101209;-80
2023/05/09 07:06:33;;;;;;;17.90;16.60;;;;;;;44.88;10.86;101079.59;4930763;28;97125;-80
2023/05/09 07:08:59;;;;;;;18.90;17.30;;;;;;;43.16;11.78;101075.88;4930629;28;96974;-80
2023/05/09 07:11:25;;;;;;;16.77;15.52;;;;;;;45.95;10.26;101076.81;4930845;28;97377;-80
2023/05/09 07:13:51;;;;;;;16.73;15.40;;;;;;;46.21;10.24;101073.03;4913449;28;101003;-80
2023/05/09 07:16:17;;;;;;;16.15;15.05;;;;;;;46.79;10.13;101077.69;4928378;28;97235;-81
2023/05/09 07:18:43;;;;;;;15.57;14.52;;;;;;;45.55;9.97;101079.06;4911062;28;96784;-81
2023/05/09 07:21:08;;;;;;;16.55;15.13;;;;;;;46.18;10.23;101075.53;4918413;28;101500;-80
2023/05/09 07:23:34;;;;;;;16.50;15.25;;;;;;;44.56;11.00;101071.22;4903022;28;101147;-82
2023/05/09 07:26:00;;;;;;;15.63;14.48;;;;;;;44.49;10.82;101057.59;4911351;28;96980;-81
2023/05/09 07:28:26;;;;;;;17.40;16.05;;;;;;;45.58;10.27;101050.81;4927084;28;97023;-81
2023/05/09 07:30:51;;;;;;;16.25;15.05;;;;;;;47.29;9.66;101042.69;4910619;28;101249;-81
2023/05/09 07:33:17;;;;;;;15.82;14.82;;;;;;;47.07;9.24;101042.97;4923335;28;97395;-81
2023/05/09 07:35:42;;;;;;;15.70;14.70;;;;;;;46.19;10.25;101053.06;4908808;28;96751;-82
2023/05/09 07:38:09;;;;;;;16.42;15.32;;;;;;;47.57;8.93;101039.31;4893170;28;96876;-82
2023/05/09 07:40:37;;;;;;;17.60;16.33;;;;;;;48.21;9.01;101034.09;4936967;28;97666;-81
2023/05/09 07:43:03;;;;;;;16.17;15.00;;;;;;;49.50;8.33;101023.56;4904807;28;101331;-82
2023/05/09 07:45:28;;;;;;;16.55;15.45;;;;;;;47.17;9.76;101018.81;4947136;28;97290;-81
2023/05/09 07:47:54;;;;;;;17.05;15.55;;;;;;;47.74;9.37;101011.19;4924140;28;98002;-82
2023/05/09 07:50:19;;;;;;;17.45;16.02;;;;;;;49.38;8.40;101022.03;4915486;28;98051;-81
2023/05/09 07:52:45;;;;;;;16.48;14.95;;;;;;;45.59;10.12;101013.69;4936921;28;97480;-81
2023/05/09 07:55:11;;;;;;;15.77;14.75;;;;;;;47.16;9.16;101008.81;4923809;28;97365;-82
2023/05/09 07:57:38;;;;;;;16.20;14.73;;;;;;;49.20;8.57;101002.44;4913645;28;97521;-81
2023/05/09 08:00:05;;;;;;;16.70;15.45;;;;;;;48.30;9.02;100993.41;4904459;28;101391;-81
2023/05/09 08:02:38;;;;;;;15.70;14.70;;;;;;;49.60;8.27;100995.59;4900284;28;97956;-81
2023/05/09 08:05:04;;;;;;;14.93;14.07;;;;;;;50.46;8.29;101004.75;4919899;28;97538;-82
2023/05/09 08:07:30;;;;;;;16.35;14.85;;;;;;;49.30;8.30;100997.59;4891954;28;97530;-83
2023/05/09 08:09:55;;;;;;;16.58;15.45;;;;;;;48.71;8.26;100990.31;4873842;28;101550;-83
2023/05/09 08:12:21;;;;;;;16.02;14.75;;;;;;;49.32;8.45;100989.75;4885349;28;101396;-84
2023/05/09 08:14:46;;;;;;;17.33;15.98;;;;;;;48.18;8.49;100979.84;4872797;28;97948;-83
2023/05/09 08:17:12;;;;;;;16.42;15.32;;;;;;;48.79;8.32;100961.84;4898009;28;97272;-84
2023/05/09 08:19:38;;;;;;;16.27;14.98;;;;;;;48.08;8.82;100977.06;4875702;28;101419;-83
2023/05/09 08:22:03;;;;;;;17.08;15.75;;;;;;;48.83;8.81;100987.16;4896027;28;97387;-83
2023/05/09 08:24:30;;;;;;;17.48;16.23;;;;;;;49.39;8.03;100983.81;4896049;28;97082;-83
2023/05/09 08:26:56;;;;;;;17.15;15.82;;;;;;;48.12;8.79;100975.41;4888283;28;97441;-82
2023/05/09 08:29:21;;;;;;;16.30;15.02;;;;;;;47.19;8.83;100965.75;4871263;28;101984;-83
2023/05/09 08:31:47;;;;;;;16.88;15.40;;;;;;;47.46;9.16;100973.75;4870392;28;101753;-82
2023/05/09 08:34:12;;;;;;;18.80;15.80;;;;;;;46.38;9.76;100958.25;4893138;28;98002;-84
2023/05/09 08:36:39;;;;;;;16.00;15.10;;;;;;;45.19;9.88;100975.47;4890206;28;97476;-82
2023/05/09 08:39:05;;;;;;;15.98;14.85;;;;;;;45.28;9.91;100954.47;4887204;28;101588;-83
2023/05/09 08:41:34;;;;;;;16.50;15.13;;;;;;;48.30;9.17;100954.44;4864912;28;101973;-84
2023/05/09 08:44:00;;;;;;;15.80;14.70;;;;;;;44.99;9.91;100948.44;4875294;28;96899;-84
2023/05/09 08:46:33;;;;;;;15.45;14.07;;;;;;;42.09;11.24;100965.41;4879598;28;97293;-84
2023/05/09 08:48:59;;;;;;;15.30;14.20;;;;;;;42.01;11.39;100972.16;4868193;28;101499;-82
2023/05/09 08:51:25;;;;;;;15.50;14.18;;;;;;;40.35;12.67;100958.50;4887158;28;97993;-84
2023/05/09 08:53:51;;;;;;;15.20;14.27;;;;;;;39.86;13.09;100947.53;4900764;28;97228;-83
2023/05/09 08:56:16;;;;;;;15.98;14.77;;;;;;;36.83;14.56;100942.44;4889096;28;97442;-83
2023/05/09 08:58:42;;;;;;;16.77;15.18;;;;;;;34.76;15.93;100940.53;4904368;28;97533;-83
2023/05/09 09:01:09;;;;;;;16.35;15.15;;;;;;;34.05;16.99;100940.38;4904599;28;97356;-83
2023/05/09 09:03:44;;;;;;;17.15;15.82;;;;;;;29.86;19.27;100965.81;4893078;28;97454;-82
2023/05/09 09:06:24;;;;;;;16.65;15.10;;;;;;;29.18;20.52;100943.09;4893101;28;98198;-82
2023/05/09 09:08:51;;;;;;;15.80;14.55;;;;;;;28.84;20.95;100948.34;4892769;28;98181;-83
2023/05/09 09:11:17;;;;;;;17.17;15.52;;;;;;;26.62;22.31;100959.81;4883449;28;101230;-82
2023/05/09 09:13:44;;;;;;;15.60;14.70;;;;;;;25.47;23.54;100949.34;4890691;28;98063;-82
2023/05/09 09:16:15;;;;;;;16.85;15.75;;;;;;;24.26;25.05;100953.28;4906763;28;97292;-82
2023/05/09 09:18:41;;;;;;;17.17;15.80;;;;;;;23.79;25.75;100957.97;4900416;28;101327;-83
2023/05/09 09:21:09;;;;;;;17.83;16.52;;;;;;;23.02;26.40;100948.69;4898286;28;101527;-83
2023/05/09 09:23:36;;;;;;;17.02;15.80;;;;;;;;;;4894618;28;97501;-79
2023/05/09 09:26:05;;;;;;;16.40;15.40;;;;;;;22.58;27.41;100942.19;4904063;28;96978;-80
2023/05/09 09:28:31;;;;;;;16.88;15.68;;;;;;;22.43;27.88;100935.31;4889862;28;97524;-85
2023/05/09 09:30:57;;;;;;;15.95;14.85;;;;;;;21.66;28.23;100924.78;4895349;28;101137;-79
2023/05/09 09:33:24;;;;;;;15.85;14.75;;;;;;;21.69;28.27;100937.06;4876259;28;97351;-84
2023/05/09 09:35:51;;;;;;;15.88;14.43;;;;;;;20.88;28.78;100908.81;4880381;28;96956;-83
2023/05/09 09:38:18;;;;;;;16.08;14.80;;;;;;;20.58;29.37;100957.94;4895303;28;100367;-79
2023/05/09 09:40:57;;;;;;;16.17;14.75;;;;;;;19.85;30.25;100923.53;4896495;28;101126;-79
2023/05/09 09:43:29;;;;;;;16.33;14.80;;;;;;;20.41;30.41;100949.28;4903013;28;97636;-78
2023/05/09 09:45:56;;;;;;;15.77;14.32;;;;;;;19.99;30.07;100938.63;4896546;28;97598;-79
2023/05/09 09:48:49;;;;;;;16.08;14.43;;;;;;;19.86;30.16;100948.34;4879263;28;101348;-80
2023/05/09 09:51:17;;;;;;;15.85;14.57;;;;;;;19.16;30.57;100929.56;4897672;28;97877;-83
2023/05/09 09:53:43;;;;;;;15.93;14.68;;;;;;;19.41;31.23;100927.13;4877593;28;97153;-82
2023/05/09 09:56:09;;;;;;;15.98;14.88;;;;;;;19.27;31.11;100943.06;4891638;28;97056;-77
2023/05/09 09:58:35;;;;;;;16.52;14.98;;;;;;;19.52;31.21;100925.59;4913024;28;97982;-77
2023/05/09 10:01:15;;;;;;;15.57;14.57;;;;;;;19.30;31.58;100934.06;4902015;28;97933;-76
2023/05/09 10:03:45;;;;;;;16.17;14.73;;;;;;;19.34;31.90;100923.09;4880759;28;97376;-77
2023/05/09 10:06:11;;;;;;;16.90;15.15;;;;;;;19.49;31.84;100931.97;4899792;28;97609;-76
2023/05/09 10:08:38;;;;;;;14.75;13.80;;;;;;;19.15;32.32;100923.38;4887664;28;101607;-80
2023/05/09 10:11:04;;;;;;;15.65;14.15;;;;;;;19.21;33.00;100912.38;4909972;28;97464;-77
2023/05/09 10:13:30;;;;;;;15.13;14.02;;;;;;;19.26;32.15;100921.84;4909051;28;97168;-78
2023/05/09 10:15:56;;;;;;;15.02;13.85;;;;;;;19.11;32.91;100908.56;4898831;28;96857;-77
2023/05/09 10:18:32;;;;;;;14.30;13.30;;;;;;;19.14;33.05;100908.38;4895239;28;97466;-78
2023/05/09 10:21:03;;;;;;;14.45;13.35;;;;;;;19.25;32.03;100905.03;4919362;28;98672;-78
2023/05/09 10:23:30;;;;;;;14.90;13.73;;;;;;;19.05;32.42;100905.41;4901455;28;96815;-79
2023/05/09 10:26:01;;;;;;;14.73;13.60;;;;;;;19.52;32.40;100915.81;4893817;28;97433;-78
2023/05/09 10:28:31;;;;;;;15.55;14.20;;;;;;;19.10;31.67;100906.84;4918168;28;98659;-79
2023/05/09 10:31:20;;;;;;;15.05;13.85;;;;;;;19.18;31.71;100896.59;4902817;28;100912;-78
2023/05/09 10:33:48;;;;;;;14.57;13.20;;;;;;;19.26;31.79;100877.50;4887989;28;97002;-78
2023/05/09 10:36:16;;;;;;;16.35;15.00;;;;;;;19.28;31.83;100882.72;4888322;28;98338;-79
2023/05/09 10:38:43;;;;;;;15.00;13.55;;;;;;;18.70;31.36;100871.09;4905380;28;97876;-79
2023/05/09 10:41:10;;;;;;;14.50;13.32;;;;;;;18.65;32.25;100876.69;4884347;28;101189;-79
2023/05/09 10:43:35;;;;;;;15.20;13.90;;;;;;;18.55;32.58;100881.66;4909898;28;97877;-79
2023/05/09 10:46:04;;;;;;;16.27;14.35;;;;;;;18.29;32.98;100877.88;4874132;28;96921;-78
2023/05/09 10:48:31;;;;;;;17.38;13.55;;;;;;;18.45;32.38;100875.19;4902669;28;101666;-79
2023/05/09 10:50:57;;;;;;;14.68;13.43;;;;;;;18.67;32.40;100882.75;4880512;28;100997;-80
2023/05/09 10:53:23;;;;;;;15.30;14.20;;;;;;;18.56;32.22;100861.28;4876575;28;98001;-79
2023/05/09 10:55:55;;;;;;;13.10;12.23;;;;;;;18.35;32.59;100852.75;4907831;28;96986;-79
2023/05/09 10:58:25;;;;;;;15.20;13.88;;;;;;;18.39;33.07;100856.94;4878757;28;101248;-79
2023/05/09 11:00:52;;;;;;;14.90;13.48;;;;;;;18.12;33.60;100851.41;4896501;28;100853;-79
2023/05/09 11:03:18;;;;;;;14.60;13.40;;;;;;;18.30;32.76;100854.84;4899557;28;97737;-79
2023/05/09 11:05:45;;;;;;;17.15;15.60;;;;;;;18.07;33.49;100837.56;4888053;28;97002;-78
2023/05/09 11:08:26;;;;;;;15.15;13.73;;;;;;;18.17;33.60;100846.69;4906578;28;100682;-79
2023/05/09 11:10:54;;;;;;;12.75;10.90;;;;;;;18.48;33.15;100834.28;4914255;28;97922;-80